sensor_id;sensor_type;location;lat;lon;timestamp;P1;durP1;ratioP1;P2;durP2;ratioP2
25627;SDS011;40915;50.826;4.356;2022-12-17T00:01:51;39.60;;;24.90;;
25627;SDS011;40915;50.826;4.356;2022-12-17T00:04:35;37.50;;;23.33;;
25627;SDS011;40915;50.826;4.356;2022-12-17T00:07:19;41.70;;;25.27;;
25627;SDS011;40915;50.826;4.356;2022-12-17T00:10:03;37.77;;;22.33;;
25627;SDS011;40915;50.826;4.356;2022-12-17T00:12:48;37.23;;;23.90;;
25627;SDS011;40915;50.826;4.356;2022-12-17T00:15:32;38.40;;;24.20;;
25627;SDS011;40915;50.826;4.356;2022-12-17T00:18:17;38.17;;;21.67;;
25627;SDS011;40915;50.826;4.356;2022-12-17T00:21:02;38.57;;;22.80;;
25627;SDS011;40915;50.826;4.356;2022-12-17T00:23:46;36.57;;;22.63;;
25627;SDS011;40915;50.826;4.356;2022-12-17T00:26:30;30.33;;;20.50;;
25627;SDS011;40915;50.826;4.356;2022-12-17T00:29:15;38.27;;;22.87;;
25627;SDS011;40915;50.826;4.356;2022-12-17T00:32:00;33.00;;;21.57;;
25627;SDS011;40915;50.826;4.356;2022-12-17T00:34:44;33.83;;;21.67;;
25627;SDS011;40915;50.826;4.356;2022-12-17T00:37:28;37.67;;;22.63;;
25627;SDS011;40915;50.826;4.356;2022-12-17T00:40:13;34.83;;;21.67;;
25627;SDS011;40915;50.826;4.356;2022-12-17T00:43:04;93.30;;;84.23;;
25627;SDS011;40915;50.826;4.356;2022-12-17T00:45:53;42.67;;;31.37;;
25627;SDS011;40915;50.826;4.356;2022-12-17T00:48:37;33.73;;;22.20;;
25627;SDS011;40915;50.826;4.356;2022-12-17T00:51:21;41.60;;;22.97;;
25627;SDS011;40915;50.826;4.356;2022-12-17T00:54:06;35.23;;;21.57;;
25627;SDS011;40915;50.826;4.356;2022-12-17T00:56:50;37.90;;;23.90;;
25627;SDS011;40915;50.826;4.356;2022-12-17T00:59:35;52.13;;;29.07;;
25627;SDS011;40915;50.826;4.356;2022-12-17T01:02:19;58.40;;;32.30;;
25627;SDS011;40915;50.826;4.356;2022-12-17T01:05:04;50.03;;;30.30;;
25627;SDS011;40915;50.826;4.356;2022-12-17T01:07:49;48.33;;;28.90;;
25627;SDS011;40915;50.826;4.356;2022-12-17T01:10:34;58.40;;;33.07;;
25627;SDS011;40915;50.826;4.356;2022-12-17T01:13:18;49.43;;;29.87;;
25627;SDS011;40915;50.826;4.356;2022-12-17T01:16:08;55.23;;;30.87;;
25627;SDS011;40915;50.826;4.356;2022-12-17T01:18:53;50.87;;;28.80;;
25627;SDS011;40915;50.826;4.356;2022-12-17T01:21:38;51.57;;;28.03;;
25627;SDS011;40915;50.826;4.356;2022-12-17T01:24:23;43.70;;;26.07;;
25627;SDS011;40915;50.826;4.356;2022-12-17T01:27:08;55.80;;;29.30;;
25627;SDS011;40915;50.826;4.356;2022-12-17T01:29:52;56.00;;;34.03;;
25627;SDS011;40915;50.826;4.356;2022-12-17T01:32:36;58.47;;;34.27;;
25627;SDS011;40915;50.826;4.356;2022-12-17T01:35:20;50.87;;;31.10;;
25627;SDS011;40915;50.826;4.356;2022-12-17T01:38:11;53.90;;;31.87;;
25627;SDS011;40915;50.826;4.356;2022-12-17T01:40:57;54.10;;;32.23;;
25627;SDS011;40915;50.826;4.356;2022-12-17T01:43:41;55.60;;;33.40;;
25627;SDS011;40915;50.826;4.356;2022-12-17T01:46:29;55.23;;;31.60;;
25627;SDS011;40915;50.826;4.356;2022-12-17T01:49:17;62.63;;;34.57;;
25627;SDS011;40915;50.826;4.356;2022-12-17T01:52:05;62.23;;;35.77;;
25627;SDS011;40915;50.826;4.356;2022-12-17T01:54:49;62.43;;;35.17;;
25627;SDS011;40915;50.826;4.356;2022-12-17T01:57:33;64.90;;;37.77;;
25627;SDS011;40915;50.826;4.356;2022-12-17T02:00:23;61.77;;;35.13;;
25627;SDS011;40915;50.826;4.356;2022-12-17T02:03:14;59.40;;;34.07;;
25627;SDS011;40915;50.826;4.356;2022-12-17T02:06:03;67.57;;;35.60;;
25627;SDS011;40915;50.826;4.356;2022-12-17T02:08:58;58.77;;;34.77;;
25627;SDS011;40915;50.826;4.356;2022-12-17T02:12:04;57.73;;;32.63;;
25627;SDS011;40915;50.826;4.356;2022-12-17T02:18:09;59.33;;;33.53;;
25627;SDS011;40915;50.826;4.356;2022-12-17T02:21:00;59.97;;;33.67;;
25627;SDS011;40915;50.826;4.356;2022-12-17T02:26:46;59.80;;;33.50;;
25627;SDS011;40915;50.826;4.356;2022-12-17T02:29:34;61.17;;;32.87;;
25627;SDS011;40915;50.826;4.356;2022-12-17T02:32:28;52.27;;;31.17;;
25627;SDS011;40915;50.826;4.356;2022-12-17T02:35:16;55.03;;;31.57;;
25627;SDS011;40915;50.826;4.356;2022-12-17T02:38:14;52.63;;;30.97;;
25627;SDS011;40915;50.826;4.356;2022-12-17T02:41:04;53.67;;;32.20;;
25627;SDS011;40915;50.826;4.356;2022-12-17T02:43:50;53.97;;;30.97;;
25627;SDS011;40915;50.826;4.356;2022-12-17T02:46:38;56.67;;;32.17;;
25627;SDS011;40915;50.826;4.356;2022-12-17T02:49:24;53.90;;;31.73;;
25627;SDS011;40915;50.826;4.356;2022-12-17T02:52:09;53.60;;;31.37;;
25627;SDS011;40915;50.826;4.356;2022-12-17T02:54:55;53.10;;;31.53;;
25627;SDS011;40915;50.826;4.356;2022-12-17T02:57:39;50.33;;;29.17;;
25627;SDS011;40915;50.826;4.356;2022-12-17T03:00:23;42.27;;;25.17;;
25627;SDS011;40915;50.826;4.356;2022-12-17T03:03:07;38.70;;;23.57;;
25627;SDS011;40915;50.826;4.356;2022-12-17T03:05:51;40.20;;;23.53;;
25627;SDS011;40915;50.826;4.356;2022-12-17T03:08:35;37.83;;;23.30;;
25627;SDS011;40915;50.826;4.356;2022-12-17T03:11:19;35.07;;;22.17;;
25627;SDS011;40915;50.826;4.356;2022-12-17T03:14:03;52.47;;;29.83;;
25627;SDS011;40915;50.826;4.356;2022-12-17T03:16:48;51.20;;;29.03;;
25627;SDS011;40915;50.826;4.356;2022-12-17T03:19:32;48.93;;;30.23;;
25627;SDS011;40915;50.826;4.356;2022-12-17T03:22:16;48.00;;;28.40;;
25627;SDS011;40915;50.826;4.356;2022-12-17T03:25:00;51.03;;;28.90;;
25627;SDS011;40915;50.826;4.356;2022-12-17T03:27:44;37.73;;;22.53;;
25627;SDS011;40915;50.826;4.356;2022-12-17T03:30:28;35.80;;;21.07;;
25627;SDS011;40915;50.826;4.356;2022-12-17T03:33:12;32.60;;;20.43;;
25627;SDS011;40915;50.826;4.356;2022-12-17T03:35:56;35.83;;;21.70;;
25627;SDS011;40915;50.826;4.356;2022-12-17T03:38:40;37.17;;;22.90;;
25627;SDS011;40915;50.826;4.356;2022-12-17T03:41:24;36.97;;;22.13;;
25627;SDS011;40915;50.826;4.356;2022-12-17T03:44:21;45.00;;;23.50;;
25627;SDS011;40915;50.826;4.356;2022-12-17T03:47:06;40.90;;;24.30;;
25627;SDS011;40915;50.826;4.356;2022-12-17T03:49:50;40.57;;;24.63;;
25627;SDS011;40915;50.826;4.356;2022-12-17T03:52:34;35.77;;;22.27;;
25627;SDS011;40915;50.826;4.356;2022-12-17T03:55:18;32.73;;;20.50;;
25627;SDS011;40915;50.826;4.356;2022-12-17T03:58:02;29.83;;;19.60;;
25627;SDS011;40915;50.826;4.356;2022-12-17T04:00:46;31.10;;;19.83;;
25627;SDS011;40915;50.826;4.356;2022-12-17T04:03:30;35.20;;;20.67;;
25627;SDS011;40915;50.826;4.356;2022-12-17T04:06:14;32.40;;;20.00;;
25627;SDS011;40915;50.826;4.356;2022-12-17T04:08:58;29.17;;;18.17;;
25627;SDS011;40915;50.826;4.356;2022-12-17T04:11:42;33.10;;;20.57;;
25627;SDS011;40915;50.826;4.356;2022-12-17T04:14:26;33.40;;;20.57;;
25627;SDS011;40915;50.826;4.356;2022-12-17T04:17:10;34.73;;;20.53;;
25627;SDS011;40915;50.826;4.356;2022-12-17T04:19:54;30.73;;;20.03;;
25627;SDS011;40915;50.826;4.356;2022-12-17T04:22:38;32.87;;;20.03;;
25627;SDS011;40915;50.826;4.356;2022-12-17T04:25:22;33.70;;;20.77;;
25627;SDS011;40915;50.826;4.356;2022-12-17T04:28:06;32.90;;;19.80;;
25627;SDS011;40915;50.826;4.356;2022-12-17T04:30:50;31.33;;;19.60;;
25627;SDS011;40915;50.826;4.356;2022-12-17T04:33:34;36.23;;;20.50;;
25627;SDS011;40915;50.826;4.356;2022-12-17T04:36:18;30.87;;;19.90;;
25627;SDS011;40915;50.826;4.356;2022-12-17T04:39:02;29.73;;;19.20;;
25627;SDS011;40915;50.826;4.356;2022-12-17T04:41:46;33.07;;;20.77;;
25627;SDS011;40915;50.826;4.356;2022-12-17T04:44:30;40.30;;;21.40;;
25627;SDS011;40915;50.826;4.356;2022-12-17T04:47:15;34.53;;;21.83;;
25627;SDS011;40915;50.826;4.356;2022-12-17T04:49:59;34.70;;;20.77;;
25627;SDS011;40915;50.826;4.356;2022-12-17T04:52:43;41.20;;;23.67;;
25627;SDS011;40915;50.826;4.356;2022-12-17T04:55:27;35.80;;;21.70;;
25627;SDS011;40915;50.826;4.356;2022-12-17T04:58:11;34.93;;;20.67;;
25627;SDS011;40915;50.826;4.356;2022-12-17T05:00:57;35.73;;;20.67;;
25627;SDS011;40915;50.826;4.356;2022-12-17T05:03:41;34.40;;;20.80;;
25627;SDS011;40915;50.826;4.356;2022-12-17T05:06:25;33.13;;;21.43;;
25627;SDS011;40915;50.826;4.356;2022-12-17T05:09:09;33.13;;;20.20;;
25627;SDS011;40915;50.826;4.356;2022-12-17T05:11:53;34.40;;;21.30;;
25627;SDS011;40915;50.826;4.356;2022-12-17T05:14:37;30.73;;;19.90;;
25627;SDS011;40915;50.826;4.356;2022-12-17T05:17:21;37.23;;;21.07;;
25627;SDS011;40915;50.826;4.356;2022-12-17T05:20:05;41.47;;;20.87;;
25627;SDS011;40915;50.826;4.356;2022-12-17T05:22:49;34.20;;;20.80;;
25627;SDS011;40915;50.826;4.356;2022-12-17T05:25:33;34.13;;;20.07;;
25627;SDS011;40915;50.826;4.356;2022-12-17T05:28:17;35.73;;;20.83;;
25627;SDS011;40915;50.826;4.356;2022-12-17T05:31:01;39.40;;;22.83;;
25627;SDS011;40915;50.826;4.356;2022-12-17T05:33:45;43.53;;;24.93;;
25627;SDS011;40915;50.826;4.356;2022-12-17T05:36:29;40.60;;;24.97;;
25627;SDS011;40915;50.826;4.356;2022-12-17T05:39:13;43.77;;;26.87;;
25627;SDS011;40915;50.826;4.356;2022-12-17T05:41:57;47.10;;;26.60;;
25627;SDS011;40915;50.826;4.356;2022-12-17T05:44:42;49.27;;;26.90;;
25627;SDS011;40915;50.826;4.356;2022-12-17T05:47:26;45.40;;;25.80;;
25627;SDS011;40915;50.826;4.356;2022-12-17T05:50:10;48.57;;;27.33;;
25627;SDS011;40915;50.826;4.356;2022-12-17T05:52:59;44.50;;;24.83;;
25627;SDS011;40915;50.826;4.356;2022-12-17T05:55:48;46.57;;;26.13;;
25627;SDS011;40915;50.826;4.356;2022-12-17T05:58:35;44.13;;;24.33;;
25627;SDS011;40915;50.826;4.356;2022-12-17T06:01:20;44.63;;;24.60;;
25627;SDS011;40915;50.826;4.356;2022-12-17T06:04:04;42.37;;;24.97;;
25627;SDS011;40915;50.826;4.356;2022-12-17T06:06:48;30.77;;;19.47;;
25627;SDS011;40915;50.826;4.356;2022-12-17T06:09:32;30.17;;;18.53;;
25627;SDS011;40915;50.826;4.356;2022-12-17T06:12:16;33.30;;;20.57;;
25627;SDS011;40915;50.826;4.356;2022-12-17T06:15:00;34.90;;;20.57;;
25627;SDS011;40915;50.826;4.356;2022-12-17T06:17:54;35.13;;;20.83;;
25627;SDS011;40915;50.826;4.356;2022-12-17T06:20:39;38.33;;;20.67;;
25627;SDS011;40915;50.826;4.356;2022-12-17T06:23:24;40.40;;;21.50;;
25627;SDS011;40915;50.826;4.356;2022-12-17T06:26:08;35.60;;;20.67;;
25627;SDS011;40915;50.826;4.356;2022-12-17T06:28:53;37.13;;;21.00;;
25627;SDS011;40915;50.826;4.356;2022-12-17T06:31:38;32.80;;;20.63;;
25627;SDS011;40915;50.826;4.356;2022-12-17T06:34:22;34.23;;;21.20;;
25627;SDS011;40915;50.826;4.356;2022-12-17T06:37:06;35.87;;;21.77;;
25627;SDS011;40915;50.826;4.356;2022-12-17T06:39:50;45.03;;;24.13;;
25627;SDS011;40915;50.826;4.356;2022-12-17T06:42:35;41.03;;;23.73;;
25627;SDS011;40915;50.826;4.356;2022-12-17T06:45:19;42.53;;;25.43;;
25627;SDS011;40915;50.826;4.356;2022-12-17T06:48:04;43.27;;;24.60;;
25627;SDS011;40915;50.826;4.356;2022-12-17T06:50:53;40.63;;;21.77;;
25627;SDS011;40915;50.826;4.356;2022-12-17T06:53:38;40.47;;;21.13;;
25627;SDS011;40915;50.826;4.356;2022-12-17T06:56:23;37.20;;;20.27;;
25627;SDS011;40915;50.826;4.356;2022-12-17T06:59:09;32.03;;;20.23;;
25627;SDS011;40915;50.826;4.356;2022-12-17T07:01:53;36.57;;;21.60;;
25627;SDS011;40915;50.826;4.356;2022-12-17T07:04:38;36.47;;;21.13;;
25627;SDS011;40915;50.826;4.356;2022-12-17T07:07:22;35.40;;;20.50;;
25627;SDS011;40915;50.826;4.356;2022-12-17T07:10:22;42.13;;;21.83;;
25627;SDS011;40915;50.826;4.356;2022-12-17T07:13:07;37.30;;;21.40;;
25627;SDS011;40915;50.826;4.356;2022-12-17T07:15:52;36.37;;;21.33;;
25627;SDS011;40915;50.826;4.356;2022-12-17T07:18:37;36.93;;;20.93;;
25627;SDS011;40915;50.826;4.356;2022-12-17T07:21:21;37.33;;;21.93;;
25627;SDS011;40915;50.826;4.356;2022-12-17T07:24:06;37.07;;;21.60;;
25627;SDS011;40915;50.826;4.356;2022-12-17T07:26:51;34.77;;;21.20;;
25627;SDS011;40915;50.826;4.356;2022-12-17T07:29:35;41.53;;;21.60;;
25627;SDS011;40915;50.826;4.356;2022-12-17T07:32:19;39.93;;;22.83;;
25627;SDS011;40915;50.826;4.356;2022-12-17T07:35:03;36.93;;;22.27;;
25627;SDS011;40915;50.826;4.356;2022-12-17T07:38:01;37.30;;;21.53;;
25627;SDS011;40915;50.826;4.356;2022-12-17T07:40:46;40.33;;;22.43;;
25627;SDS011;40915;50.826;4.356;2022-12-17T07:43:31;41.77;;;22.00;;
25627;SDS011;40915;50.826;4.356;2022-12-17T07:46:15;36.83;;;22.07;;
25627;SDS011;40915;50.826;4.356;2022-12-17T07:48:59;38.40;;;21.40;;
25627;SDS011;40915;50.826;4.356;2022-12-17T07:51:44;41.30;;;23.17;;
25627;SDS011;40915;50.826;4.356;2022-12-17T07:54:28;38.07;;;21.40;;
25627;SDS011;40915;50.826;4.356;2022-12-17T07:57:12;38.50;;;22.93;;
25627;SDS011;40915;50.826;4.356;2022-12-17T07:59:56;39.17;;;22.40;;
25627;SDS011;40915;50.826;4.356;2022-12-17T08:02:40;42.97;;;22.90;;
25627;SDS011;40915;50.826;4.356;2022-12-17T08:05:24;46.20;;;23.67;;
25627;SDS011;40915;50.826;4.356;2022-12-17T08:08:09;40.67;;;23.70;;
25627;SDS011;40915;50.826;4.356;2022-12-17T08:10:55;43.63;;;24.00;;
25627;SDS011;40915;50.826;4.356;2022-12-17T08:13:39;41.73;;;24.70;;
25627;SDS011;40915;50.826;4.356;2022-12-17T08:16:22;49.17;;;24.07;;
25627;SDS011;40915;50.826;4.356;2022-12-17T08:19:07;38.77;;;23.00;;
25627;SDS011;40915;50.826;4.356;2022-12-17T08:21:51;41.93;;;23.90;;
25627;SDS011;40915;50.826;4.356;2022-12-17T08:24:35;40.23;;;23.67;;
25627;SDS011;40915;50.826;4.356;2022-12-17T08:27:19;43.63;;;24.10;;
25627;SDS011;40915;50.826;4.356;2022-12-17T08:30:03;44.33;;;24.63;;
25627;SDS011;40915;50.826;4.356;2022-12-17T08:32:48;45.73;;;24.73;;
25627;SDS011;40915;50.826;4.356;2022-12-17T08:35:32;43.67;;;25.23;;
25627;SDS011;40915;50.826;4.356;2022-12-17T08:38:16;45.43;;;25.53;;
25627;SDS011;40915;50.826;4.356;2022-12-17T08:41:00;41.00;;;25.00;;
25627;SDS011;40915;50.826;4.356;2022-12-17T08:43:44;49.67;;;25.83;;
25627;SDS011;40915;50.826;4.356;2022-12-17T08:46:30;44.43;;;25.10;;
25627;SDS011;40915;50.826;4.356;2022-12-17T08:49:14;46.20;;;25.27;;
25627;SDS011;40915;50.826;4.356;2022-12-17T08:52:18;48.83;;;26.37;;
25627;SDS011;40915;50.826;4.356;2022-12-17T08:55:02;43.60;;;24.63;;
25627;SDS011;40915;50.826;4.356;2022-12-17T08:57:57;40.80;;;22.73;;
25627;SDS011;40915;50.826;4.356;2022-12-17T09:00:41;41.93;;;23.83;;
25627;SDS011;40915;50.826;4.356;2022-12-17T09:03:27;48.93;;;25.50;;
25627;SDS011;40915;50.826;4.356;2022-12-17T09:06:11;50.33;;;30.75;;
25627;SDS011;40915;50.826;4.356;2022-12-17T09:08:55;46.97;;;26.10;;
25627;SDS011;40915;50.826;4.356;2022-12-17T09:11:41;45.00;;;25.67;;
25627;SDS011;40915;50.826;4.356;2022-12-17T09:14:26;44.53;;;25.80;;
25627;SDS011;40915;50.826;4.356;2022-12-17T09:17:11;42.53;;;25.20;;
25627;SDS011;40915;50.826;4.356;2022-12-17T09:19:55;58.97;;;27.87;;
25627;SDS011;40915;50.826;4.356;2022-12-17T09:22:40;45.33;;;24.87;;
25627;SDS011;40915;50.826;4.356;2022-12-17T09:25:24;52.40;;;25.57;;
25627;SDS011;40915;50.826;4.356;2022-12-17T09:28:08;51.13;;;25.37;;
25627;SDS011;40915;50.826;4.356;2022-12-17T09:30:56;45.27;;;25.87;;
25627;SDS011;40915;50.826;4.356;2022-12-17T09:33:42;44.57;;;26.40;;
25627;SDS011;40915;50.826;4.356;2022-12-17T09:36:27;44.60;;;24.63;;
25627;SDS011;40915;50.826;4.356;2022-12-17T09:39:11;53.90;;;27.43;;
25627;SDS011;40915;50.826;4.356;2022-12-17T09:42:12;47.97;;;26.33;;
25627;SDS011;40915;50.826;4.356;2022-12-17T09:45:26;46.40;;;25.87;;
25627;SDS011;40915;50.826;4.356;2022-12-17T09:48:22;52.20;;;27.43;;
25627;SDS011;40915;50.826;4.356;2022-12-17T09:51:13;54.90;;;28.03;;
25627;SDS011;40915;50.826;4.356;2022-12-17T09:54:11;49.73;;;28.17;;
25627;SDS011;40915;50.826;4.356;2022-12-17T09:57:19;46.30;;;26.10;;
25627;SDS011;40915;50.826;4.356;2022-12-17T10:00:13;43.70;;;26.07;;
25627;SDS011;40915;50.826;4.356;2022-12-17T10:03:00;45.67;;;26.13;;
25627;SDS011;40915;50.826;4.356;2022-12-17T10:05:45;50.27;;;26.90;;
25627;SDS011;40915;50.826;4.356;2022-12-17T10:08:30;43.57;;;26.37;;
25627;SDS011;40915;50.826;4.356;2022-12-17T10:11:20;50.67;;;27.27;;
25627;SDS011;40915;50.826;4.356;2022-12-17T10:14:19;43.47;;;25.33;;
25627;SDS011;40915;50.826;4.356;2022-12-17T10:17:21;45.33;;;26.03;;
25627;SDS011;40915;50.826;4.356;2022-12-17T10:20:27;43.77;;;26.27;;
25627;SDS011;40915;50.826;4.356;2022-12-17T10:23:26;45.10;;;25.57;;
25627;SDS011;40915;50.826;4.356;2022-12-17T10:26:15;40.13;;;24.70;;
25627;SDS011;40915;50.826;4.356;2022-12-17T10:29:02;46.03;;;26.00;;
25627;SDS011;40915;50.826;4.356;2022-12-17T10:32:07;46.40;;;26.23;;
25627;SDS011;40915;50.826;4.356;2022-12-17T10:35:23;44.73;;;25.70;;
25627;SDS011;40915;50.826;4.356;2022-12-17T10:38:27;45.90;;;26.27;;
25627;SDS011;40915;50.826;4.356;2022-12-17T10:44:18;45.73;;;25.90;;
25627;SDS011;40915;50.826;4.356;2022-12-17T10:47:03;49.17;;;27.20;;
25627;SDS011;40915;50.826;4.356;2022-12-17T10:49:55;45.43;;;25.20;;
25627;SDS011;40915;50.826;4.356;2022-12-17T10:52:42;45.10;;;26.73;;
25627;SDS011;40915;50.826;4.356;2022-12-17T10:55:27;45.90;;;27.37;;
25627;SDS011;40915;50.826;4.356;2022-12-17T11:01:05;44.37;;;25.37;;
25627;SDS011;40915;50.826;4.356;2022-12-17T11:03:54;42.70;;;24.50;;
25627;SDS011;40915;50.826;4.356;2022-12-17T11:06:40;45.37;;;26.00;;
25627;SDS011;40915;50.826;4.356;2022-12-17T11:09:30;46.80;;;25.10;;
25627;SDS011;40915;50.826;4.356;2022-12-17T11:12:40;46.00;;;24.60;;
25627;SDS011;40915;50.826;4.356;2022-12-17T11:18:25;39.17;;;23.63;;
25627;SDS011;40915;50.826;4.356;2022-12-17T11:21:27;45.40;;;23.20;;
25627;SDS011;40915;50.826;4.356;2022-12-17T11:24:22;36.43;;;22.73;;
25627;SDS011;40915;50.826;4.356;2022-12-17T11:27:11;37.10;;;21.87;;
25627;SDS011;40915;50.826;4.356;2022-12-17T11:30:01;38.93;;;23.50;;
25627;SDS011;40915;50.826;4.356;2022-12-17T11:32:57;38.90;;;22.27;;
25627;SDS011;40915;50.826;4.356;2022-12-17T11:36:01;36.57;;;22.07;;
25627;SDS011;40915;50.826;4.356;2022-12-17T11:42:42;36.40;;;22.97;;
25627;SDS011;40915;50.826;4.356;2022-12-17T11:57:23;39.13;;;21.53;;
25627;SDS011;40915;50.826;4.356;2022-12-17T12:00:17;39.50;;;22.17;;
25627;SDS011;40915;50.826;4.356;2022-12-17T12:14:44;40.43;;;22.93;;
25627;SDS011;40915;50.826;4.356;2022-12-17T12:17:40;38.90;;;22.20;;
25627;SDS011;40915;50.826;4.356;2022-12-17T12:20:40;40.00;;;22.30;;
25627;SDS011;40915;50.826;4.356;2022-12-17T12:35:57;36.13;;;21.43;;
25627;SDS011;40915;50.826;4.356;2022-12-17T12:38:44;35.73;;;22.63;;
25627;SDS011;40915;50.826;4.356;2022-12-17T12:41:45;36.90;;;22.03;;
25627;SDS011;40915;50.826;4.356;2022-12-17T12:54:18;37.33;;;20.60;;
25627;SDS011;40915;50.826;4.356;2022-12-17T12:57:23;35.70;;;21.30;;
25627;SDS011;40915;50.826;4.356;2022-12-17T13:00:20;31.73;;;19.63;;
25627;SDS011;40915;50.826;4.356;2022-12-17T13:03:08;35.53;;;20.20;;
25627;SDS011;40915;50.826;4.356;2022-12-17T13:06:02;32.07;;;20.03;;
25627;SDS011;40915;50.826;4.356;2022-12-17T13:08:28;38.67;;;20.97;;
25627;SDS011;40915;50.826;4.356;2022-12-17T13:10:54;32.73;;;19.20;;
25627;SDS011;40915;50.826;4.356;2022-12-17T13:13:25;37.00;;;21.83;;
25627;SDS011;40915;50.826;4.356;2022-12-17T13:16:01;35.30;;;20.67;;
25627;SDS011;40915;50.826;4.356;2022-12-17T13:18:48;34.83;;;19.93;;
25627;SDS011;40915;50.826;4.356;2022-12-17T13:21:40;36.03;;;20.40;;
25627;SDS011;40915;50.826;4.356;2022-12-17T13:24:09;32.73;;;20.13;;
25627;SDS011;40915;50.826;4.356;2022-12-17T13:26:55;33.43;;;19.30;;
25627;SDS011;40915;50.826;4.356;2022-12-17T13:29:22;34.20;;;19.57;;
25627;SDS011;40915;50.826;4.356;2022-12-17T13:31:56;35.13;;;20.77;;
25627;SDS011;40915;50.826;4.356;2022-12-17T13:34:54;42.57;;;24.33;;
25627;SDS011;40915;50.826;4.356;2022-12-17T13:37:31;35.30;;;20.90;;
25627;SDS011;40915;50.826;4.356;2022-12-17T13:42:57;35.93;;;21.20;;
25627;SDS011;40915;50.826;4.356;2022-12-17T13:45:23;38.90;;;20.87;;
25627;SDS011;40915;50.826;4.356;2022-12-17T13:47:57;38.30;;;20.77;;
25627;SDS011;40915;50.826;4.356;2022-12-17T13:50:27;35.03;;;20.17;;
25627;SDS011;40915;50.826;4.356;2022-12-17T13:52:53;36.97;;;20.40;;
25627;SDS011;40915;50.826;4.356;2022-12-17T13:55:23;36.30;;;21.10;;
25627;SDS011;40915;50.826;4.356;2022-12-17T13:57:51;42.40;;;22.57;;
25627;SDS011;40915;50.826;4.356;2022-12-17T14:00:27;35.77;;;19.23;;
25627;SDS011;40915;50.826;4.356;2022-12-17T14:02:54;37.43;;;19.67;;
25627;SDS011;40915;50.826;4.356;2022-12-17T14:05:31;36.73;;;19.50;;
25627;SDS011;40915;50.826;4.356;2022-12-17T14:08:06;31.03;;;18.83;;
25627;SDS011;40915;50.826;4.356;2022-12-17T14:10:32;36.10;;;18.50;;
25627;SDS011;40915;50.826;4.356;2022-12-17T14:13:05;33.57;;;19.93;;
25627;SDS011;40915;50.826;4.356;2022-12-17T14:15:34;31.47;;;18.87;;
25627;SDS011;40915;50.826;4.356;2022-12-17T14:18:01;32.73;;;19.33;;
25627;SDS011;40915;50.826;4.356;2022-12-17T14:20:29;44.33;;;21.70;;
25627;SDS011;40915;50.826;4.356;2022-12-17T14:23:11;35.80;;;18.97;;
25627;SDS011;40915;50.826;4.356;2022-12-17T14:25:45;34.97;;;19.57;;
25627;SDS011;40915;50.826;4.356;2022-12-17T14:28:23;37.73;;;20.30;;
25627;SDS011;40915;50.826;4.356;2022-12-17T14:30:50;30.43;;;19.33;;
25627;SDS011;40915;50.826;4.356;2022-12-17T14:33:28;31.97;;;17.83;;
25627;SDS011;40915;50.826;4.356;2022-12-17T14:36:01;32.63;;;18.43;;
25627;SDS011;40915;50.826;4.356;2022-12-17T14:38:30;33.93;;;18.23;;
25627;SDS011;40915;50.826;4.356;2022-12-17T14:41:04;34.80;;;19.57;;
25627;SDS011;40915;50.826;4.356;2022-12-17T14:43:57;34.73;;;19.57;;
25627;SDS011;40915;50.826;4.356;2022-12-17T14:46:25;36.23;;;19.67;;
25627;SDS011;40915;50.826;4.356;2022-12-17T14:48:55;36.90;;;19.50;;
25627;SDS011;40915;50.826;4.356;2022-12-17T14:51:35;36.63;;;20.40;;
25627;SDS011;40915;50.826;4.356;2022-12-17T14:56:30;36.80;;;19.30;;
25627;SDS011;40915;50.826;4.356;2022-12-17T14:58:56;35.13;;;19.00;;
25627;SDS011;40915;50.826;4.356;2022-12-17T15:01:21;38.80;;;21.30;;
25627;SDS011;40915;50.826;4.356;2022-12-17T15:03:47;35.83;;;20.00;;
25627;SDS011;40915;50.826;4.356;2022-12-17T15:06:16;35.10;;;20.33;;
25627;SDS011;40915;50.826;4.356;2022-12-17T15:08:44;39.80;;;20.47;;
25627;SDS011;40915;50.826;4.356;2022-12-17T15:11:12;36.63;;;20.70;;
25627;SDS011;40915;50.826;4.356;2022-12-17T15:13:41;49.20;;;25.07;;
25627;SDS011;40915;50.826;4.356;2022-12-17T15:16:06;44.67;;;22.60;;
25627;SDS011;40915;50.826;4.356;2022-12-17T15:18:32;42.57;;;22.83;;
25627;SDS011;40915;50.826;4.356;2022-12-17T15:20:58;43.00;;;22.43;;
25627;SDS011;40915;50.826;4.356;2022-12-17T15:23:25;42.10;;;22.23;;
25627;SDS011;40915;50.826;4.356;2022-12-17T15:25:52;51.37;;;24.77;;
25627;SDS011;40915;50.826;4.356;2022-12-17T15:28:18;48.77;;;24.50;;
25627;SDS011;40915;50.826;4.356;2022-12-17T15:30:45;46.77;;;25.03;;
25627;SDS011;40915;50.826;4.356;2022-12-17T15:33:11;46.07;;;24.50;;
25627;SDS011;40915;50.826;4.356;2022-12-17T15:35:38;43.67;;;24.83;;
25627;SDS011;40915;50.826;4.356;2022-12-17T15:38:04;52.23;;;26.30;;
25627;SDS011;40915;50.826;4.356;2022-12-17T15:40:30;53.00;;;26.50;;
25627;SDS011;40915;50.826;4.356;2022-12-17T15:42:56;51.27;;;27.27;;
25627;SDS011;40915;50.826;4.356;2022-12-17T15:45:37;51.57;;;26.60;;
25627;SDS011;40915;50.826;4.356;2022-12-17T15:48:06;54.83;;;27.97;;
25627;SDS011;40915;50.826;4.356;2022-12-17T15:50:32;53.43;;;28.93;;
25627;SDS011;40915;50.826;4.356;2022-12-17T15:52:58;54.53;;;28.73;;
25627;SDS011;40915;50.826;4.356;2022-12-17T15:55:23;53.00;;;29.33;;
25627;SDS011;40915;50.826;4.356;2022-12-17T15:57:49;58.20;;;29.40;;
25627;SDS011;40915;50.826;4.356;2022-12-17T16:00:15;55.77;;;29.40;;
25627;SDS011;40915;50.826;4.356;2022-12-17T16:02:40;58.43;;;30.17;;
25627;SDS011;40915;50.826;4.356;2022-12-17T16:05:06;60.17;;;30.33;;
25627;SDS011;40915;50.826;4.356;2022-12-17T16:07:32;58.23;;;30.43;;
25627;SDS011;40915;50.826;4.356;2022-12-17T16:09:58;57.33;;;29.60;;
25627;SDS011;40915;50.826;4.356;2022-12-17T16:12:24;59.63;;;30.27;;
25627;SDS011;40915;50.826;4.356;2022-12-17T16:14:49;58.30;;;29.67;;
25627;SDS011;40915;50.826;4.356;2022-12-17T16:17:15;58.40;;;30.00;;
25627;SDS011;40915;50.826;4.356;2022-12-17T16:19:40;62.23;;;29.50;;
25627;SDS011;40915;50.826;4.356;2022-12-17T16:22:06;53.50;;;28.30;;
25627;SDS011;40915;50.826;4.356;2022-12-17T16:24:32;60.37;;;30.13;;
25627;SDS011;40915;50.826;4.356;2022-12-17T16:26:57;50.83;;;27.03;;
25627;SDS011;40915;50.826;4.356;2022-12-17T16:29:23;58.37;;;29.20;;
25627;SDS011;40915;50.826;4.356;2022-12-17T16:31:49;52.53;;;27.97;;
25627;SDS011;40915;50.826;4.356;2022-12-17T16:34:15;58.03;;;30.63;;
25627;SDS011;40915;50.826;4.356;2022-12-17T16:36:41;56.73;;;28.77;;
25627;SDS011;40915;50.826;4.356;2022-12-17T16:39:07;53.93;;;29.00;;
25627;SDS011;40915;50.826;4.356;2022-12-17T16:41:38;59.97;;;29.70;;
25627;SDS011;40915;50.826;4.356;2022-12-17T16:44:03;58.83;;;30.07;;
25627;SDS011;40915;50.826;4.356;2022-12-17T16:46:31;58.90;;;29.03;;
25627;SDS011;40915;50.826;4.356;2022-12-17T16:49:03;63.27;;;30.93;;
25627;SDS011;40915;50.826;4.356;2022-12-17T16:51:31;60.97;;;29.77;;
25627;SDS011;40915;50.826;4.356;2022-12-17T16:53:57;56.07;;;29.93;;
25627;SDS011;40915;50.826;4.356;2022-12-17T16:56:26;60.77;;;30.37;;
25627;SDS011;40915;50.826;4.356;2022-12-17T16:59:21;58.00;;;29.60;;
25627;SDS011;40915;50.826;4.356;2022-12-17T17:01:50;53.93;;;27.63;;